Time;durP1;ratioP1;P1;durP2;ratioP2;P2;SDS_P1;SDS_P2;PMS_P1;PMS_P2;Temp;Humidity;BMP_temperature;BMP_pressure;BME280_temperature;BME280_humidity;BME280_pressure;Samples;Min_cycle;Max_cycle;Signal;HPM_P1;HPM_P2
2023/09/20 00:01:58;;;;;;;0.10;0.10;;;;;;;17.86;81.92;98227.38;7373318;19;20010;-62
2023/09/20 00:04:23;;;;;;;0.10;0.10;;;;;;;17.77;81.96;98193.91;7365844;19;20553;-63
2023/09/20 00:06:49;;;;;;;0.10;0.10;;;;;;;17.88;81.34;98220.16;7366467;19;20023;-62
2023/09/20 00:09:17;;;;;;;0.10;0.10;;;;;;;17.88;81.50;98225.41;7368719;19;20506;-62
2023/09/20 00:11:44;;;;;;;0.10;0.10;;;;;;;17.85;81.58;98220.44;7365135;19;20015;-62
2023/09/20 00:14:10;;;;;;;0.10;0.10;;;;;;;17.89;81.76;98216.56;7368148;19;20014;-62
2023/09/20 00:16:35;;;;;;;0.10;0.10;;;;;;;17.55;81.35;98168.63;7363881;19;20010;-62
2023/09/20 00:19:01;;;;;;;0.10;0.10;;;;;;;17.91;81.95;98234.06;7365205;19;20042;-63
2023/09/20 00:21:26;;;;;;;0.10;0.10;;;;;;;17.92;82.35;98211.94;7367778;19;20010;-62
2023/09/20 00:23:51;;;;;;;0.10;0.10;;;;;;;17.91;81.92;98229.59;7362222;19;20011;-63
2023/09/20 00:26:19;;;;;;;0.10;0.10;;;;;;;17.92;81.83;98209.31;7365068;19;20010;-63
2023/09/20 00:28:48;;;;;;;0.10;0.10;;;;;;;17.88;82.31;98201.66;7360384;19;20030;-64
2023/09/20 00:31:17;;;;;;;0.10;0.10;;;;;;;17.97;81.83;98212.34;7360279;19;20357;-63
2023/09/20 00:33:43;;;;;;;0.10;0.10;;;;;;;17.97;81.90;98202.63;7362113;19;20021;-64
2023/09/20 00:36:08;;;;;;;0.10;0.10;;;;;;;17.88;82.20;98177.91;7366339;19;20589;-64
2023/09/20 00:38:34;;;;;;;0.20;0.20;;;;;;;18.02;82.46;98189.00;7372298;19;20018;-64
2023/09/20 00:41:06;;;;;;;0.10;0.10;;;;;;;18.07;82.08;98197.31;7359548;19;20024;-64
2023/09/20 00:43:32;;;;;;;0.10;0.10;;;;;;;18.01;82.39;98177.59;7364032;19;20011;-64
2023/09/20 00:45:59;;;;;;;0.10;0.10;;;;;;;18.11;82.38;98177.56;7359356;19;20034;-64
2023/09/20 00:48:25;;;;;;;;;;;;;;;18.17;81.61;98149.75;7367036;19;20766;-64
2023/09/20 00:50:51;;;;;;;0.10;0.10;;;;;;;18.14;82.24;98151.69;7372929;19;19937;-64
2023/09/20 00:53:17;;;;;;;0.10;0.10;;;;;;;18.16;82.00;98138.34;7374115;19;20010;-64
2023/09/20 00:55:42;;;;;;;0.10;0.10;;;;;;;18.17;82.47;98132.09;7372439;19;20014;-64
2023/09/20 00:58:14;;;;;;;0.10;0.10;;;;;;;18.09;81.80;98101.09;7369780;19;20383;-64
2023/09/20 01:00:43;;;;;;;0.20;0.20;;;;;;;18.20;81.97;98134.44;7367467;19;20014;-64
2023/09/20 01:03:16;;;;;;;0.10;0.10;;;;;;;18.22;82.03;98132.47;7368129;19;20014;-65
2023/09/20 01:05:42;;;;;;;0.10;0.10;;;;;;;18.16;82.57;98098.75;7372363;19;20438;-64
2023/09/20 01:08:08;;;;;;;0.10;0.10;;;;;;;18.12;81.98;98131.69;7368471;19;20070;-64
2023/09/20 01:10:36;;;;;;;0.10;0.10;;;;;;;18.25;82.26;98111.06;7370695;19;20006;-65
2023/09/20 01:13:04;;;;;;;0.10;0.10;;;;;;;18.18;82.19;98090.66;7366922;19;20709;-64
2023/09/20 01:15:30;;;;;;;;;;;;;;;18.34;81.32;98111.97;7369819;19;20486;-65
2023/09/20 01:17:57;;;;;;;0.10;0.10;;;;;;;18.33;81.64;98118.25;7370610;19;19923;-65
2023/09/20 01:20:26;;;;;;;0.10;0.10;;;;;;;18.34;81.67;98081.09;7365232;19;20107;-65
2023/09/20 01:22:56;;;;;;;0.20;0.20;;;;;;;18.35;82.01;98074.88;7369216;19;20362;-65
2023/09/20 01:25:26;;;;;;;0.10;0.10;;;;;;;18.39;82.08;98056.88;7368323;19;20014;-64
2023/09/20 01:27:55;;;;;;;0.10;0.10;;;;;;;18.43;82.46;98063.53;7378217;19;20022;-65
2023/09/20 01:30:25;;;;;;;0.10;0.10;;;;;;;18.46;82.13;98062.44;7375860;19;20015;-65
2023/09/20 01:32:58;;;;;;;0.10;0.10;;;;;;;18.46;82.05;98039.47;7367882;19;20014;-65
2023/09/20 01:35:25;;;;;;;0.10;0.10;;;;;;;18.48;82.28;98041.94;7368904;19;20054;-64
2023/09/20 01:37:51;;;;;;;0.08;0.08;;;;;;;18.50;81.48;98032.91;7367101;19;20014;-65
2023/09/20 01:40:23;;;;;;;0.10;0.10;;;;;;;18.54;82.02;98041.34;7369833;19;20011;-65
2023/09/20 01:42:49;;;;;;;0.10;0.10;;;;;;;18.61;82.03;98037.13;7367405;19;20750;-65
2023/09/20 01:45:18;;;;;;;0.10;0.10;;;;;;;18.62;81.48;98030.88;7367845;19;20015;-66
2023/09/20 01:47:44;;;;;;;0.10;0.10;;;;;;;18.63;81.43;97999.00;7366371;19;20014;-65
2023/09/20 01:50:12;;;;;;;0.10;0.10;;;;;;;18.64;81.71;97999.81;7367345;19;20010;-65
2023/09/20 01:52:38;;;;;;;0.03;0.03;;;;;;;18.57;81.27;97989.03;7367968;19;20014;-65
2023/09/20 01:55:08;;;;;;;0.10;0.10;;;;;;;18.73;81.31;98008.69;7367859;19;20712;-65
2023/09/20 01:57:35;;;;;;;0.10;0.10;;;;;;;18.71;81.44;98003.56;7365062;19;20113;-65
2023/09/20 02:00:01;;;;;;;0.10;0.10;;;;;;;18.62;81.62;97970.06;7360927;19;20081;-65
2023/09/20 02:02:27;;;;;;;0.10;0.10;;;;;;;18.63;81.46;97971.72;7369224;19;20027;-66
2023/09/20 02:04:52;;;;;;;0.10;0.10;;;;;;;18.58;81.68;97937.00;7361708;19;20747;-65
2023/09/20 02:07:22;;;;;;;0.10;0.10;;;;;;;18.79;81.28;97973.69;7366413;19;20074;-66
2023/09/20 02:09:47;;;;;;;0.10;0.10;;;;;;;18.74;81.28;97974.16;7366381;19;20006;-65
2023/09/20 02:12:12;;;;;;;0.00;0.00;;;;;;;18.72;81.41;97960.28;7362684;19;20018;-66
2023/09/20 02:14:38;;;;;;;0.13;0.13;;;;;;;18.86;81.60;97966.84;7371124;19;20550;-65
2023/09/20 02:17:05;;;;;;;0.10;0.10;;;;;;;18.86;81.65;97957.09;7367971;19;20010;-65
2023/09/20 02:19:30;;;;;;;0.10;0.10;;;;;;;18.88;81.17;97933.94;7370503;19;20046;-65
2023/09/20 02:21:55;;;;;;;0.10;0.10;;;;;;;18.92;81.11;97969.69;7369167;19;20015;-65
2023/09/20 02:24:23;;;;;;;0.10;0.10;;;;;;;18.92;81.23;97945.88;7371233;19;20027;-66
2023/09/20 02:26:48;;;;;;;0.10;0.10;;;;;;;18.95;81.11;97938.63;7365631;19;20110;-65
2023/09/20 02:29:14;;;;;;;0.10;0.10;;;;;;;19.01;81.07;97985.59;7366828;19;20026;-66
2023/09/20 02:31:39;;;;;;;0.10;0.10;;;;;;;19.01;81.16;97933.56;7364928;19;20031;-65
2023/09/20 02:34:04;;;;;;;0.10;0.10;;;;;;;19.04;80.70;97949.09;7365169;19;20418;-65
2023/09/20 02:36:30;;;;;;;0.10;0.10;;;;;;;19.05;81.01;97918.19;7364991;19;20035;-65
2023/09/20 02:38:55;;;;;;;0.10;0.10;;;;;;;19.06;80.68;97930.41;7362599;19;20082;-65
2023/09/20 02:41:21;;;;;;;0.10;0.10;;;;;;;18.91;80.68;97874.66;7363806;19;20040;-66
2023/09/20 02:43:47;;;;;;;0.10;0.10;;;;;;;19.07;80.24;97927.63;7366384;19;20020;-66
2023/09/20 02:46:13;;;;;;;0.10;0.10;;;;;;;19.06;80.71;97909.25;7363642;19;20031;-65
2023/09/20 02:48:38;;;;;;;0.10;0.10;;;;;;;19.07;80.30;97917.06;7367314;19;20018;-66
2023/09/20 02:51:05;;;;;;;0.00;0.00;;;;;;;19.07;80.83;97911.75;7361320;19;20021;-66
2023/09/20 02:53:32;;;;;;;0.08;0.08;;;;;;;19.08;80.73;97904.66;7366739;19;20503;-66
2023/09/20 02:55:57;;;;;;;0.10;0.10;;;;;;;19.03;80.32;97917.53;7361281;19;20002;-65
2023/09/20 02:58:23;;;;;;;0.10;0.10;;;;;;;18.85;80.26;97868.16;7366141;19;20440;-65
2023/09/20 03:00:50;;;;;;;0.10;0.10;;;;;;;19.05;80.38;97918.19;7358852;19;20006;-66
2023/09/20 03:03:17;;;;;;;0.10;0.10;;;;;;;19.06;80.31;97899.53;7366314;19;20011;-65
2023/09/20 03:05:43;;;;;;;0.10;0.10;;;;;;;19.03;80.50;97910.41;7370263;19;20016;-66
2023/09/20 03:08:12;;;;;;;0.10;0.10;;;;;;;18.98;80.77;97896.81;7373159;19;20015;-65
2023/09/20 03:10:39;;;;;;;0.10;0.10;;;;;;;18.92;80.97;97876.31;7360847;19;20005;-66
2023/09/20 03:13:05;;;;;;;0.10;0.10;;;;;;;18.85;80.37;97877.91;7364484;19;20713;-66
2023/09/20 03:15:32;;;;;;;0.10;0.10;;;;;;;18.88;80.50;97870.50;7360047;19;20120;-65
2023/09/20 03:18:02;;;;;;;0.10;0.10;;;;;;;19.04;80.38;97905.94;7360908;19;20014;-65
2023/09/20 03:20:32;;;;;;;0.10;0.10;;;;;;;19.02;80.51;97886.78;7362249;19;20101;-66
2023/09/20 03:23:02;;;;;;;0.10;0.10;;;;;;;18.92;80.68;97890.34;7364569;19;20014;-65
2023/09/20 03:25:36;;;;;;;0.10;0.10;;;;;;;19.00;80.33;97878.16;7371221;19;20043;-66
2023/09/20 03:28:03;;;;;;;0.10;0.10;;;;;;;18.96;80.17;97866.22;7356275;19;20294;-65
2023/09/20 03:30:31;;;;;;;0.10;0.10;;;;;;;19.00;80.04;97886.09;7351379;19;20006;-66
2023/09/20 03:32:57;;;;;;;0.10;0.10;;;;;;;18.96;79.56;97876.78;7361446;19;20006;-65
2023/09/20 03:35:23;;;;;;;0.10;0.10;;;;;;;18.91;79.63;97875.47;7364937;19;20491;-65
2023/09/20 03:37:49;;;;;;;0.10;0.10;;;;;;;18.86;79.93;97853.97;7368636;19;20007;-65
2023/09/20 03:40:19;;;;;;;0.10;0.10;;;;;;;18.85;79.65;97868.16;7362837;19;20006;-65
2023/09/20 03:42:46;;;;;;;0.10;0.10;;;;;;;18.82;79.93;97857.06;7369946;19;20039;-65
2023/09/20 03:45:14;;;;;;;0.10;0.10;;;;;;;18.79;80.17;97860.84;7363740;19;20005;-65
2023/09/20 03:47:49;;;;;;;0.00;0.00;;;;;;;18.79;79.81;97860.00;7366151;19;20771;-65
2023/09/20 03:50:19;;;;;;;0.10;0.10;;;;;;;18.67;80.22;97848.84;7361659;19;20014;-65
2023/09/20 03:52:45;;;;;;;0.10;0.10;;;;;;;18.73;80.31;97850.91;7364758;19;20098;-65
2023/09/20 03:55:11;;;;;;;0.10;0.10;;;;;;;18.71;80.18;97837.03;7366165;19;20010;-65
2023/09/20 03:57:40;;;;;;;0.10;0.10;;;;;;;18.59;80.17;97846.16;7362441;19;20018;-65
2023/09/20 04:00:15;;;;;;;0.10;0.10;;;;;;;18.67;80.55;97846.22;7368159;19;20002;-66
2023/09/20 04:02:41;;;;;;;0.10;0.10;;;;;;;18.56;80.39;97827.97;7363484;19;20352;-66
2023/09/20 04:05:14;;;;;;;0.10;0.10;;;;;;;18.48;80.43;97836.66;7366397;19;20021;-65
2023/09/20 04:07:40;;;;;;;0.10;0.10;;;;;;;18.63;80.45;97850.16;7366694;19;20026;-65
2023/09/20 04:10:07;;;;;;;0.10;0.10;;;;;;;18.60;80.42;97840.72;7358477;19;20007;-65
2023/09/20 04:12:34;;;;;;;0.10;0.10;;;;;;;18.60;80.56;97859.22;7361801;19;20855;-65
2023/09/20 04:14:59;;;;;;;0.10;0.10;;;;;;;18.59;80.60;97854.06;7366143;19;20015;-66
2023/09/20 04:17:25;;;;;;;0.08;0.08;;;;;;;18.45;80.44;97821.13;7343730;19;20022;-65
2023/09/20 04:19:51;;;;;;;0.10;0.10;;;;;;;18.35;80.62;97800.09;7368870;19;20021;-65
2023/09/20 04:22:17;;;;;;;0.00;0.00;;;;;;;18.56;80.44;97834.09;7363630;19;20016;-65
2023/09/20 04:24:43;;;;;;;0.10;0.10;;;;;;;18.55;80.56;97842.16;7363681;19;20003;-65
2023/09/20 04:27:08;;;;;;;0.00;0.00;;;;;;;18.57;80.31;97825.16;7363745;19;20090;-65
2023/09/20 04:29:35;;;;;;;0.10;0.10;;;;;;;18.56;80.60;97820.88;7363616;19;20023;-65
2023/09/20 04:32:00;;;;;;;0.10;0.10;;;;;;;18.54;80.18;97814.91;7363899;19;20007;-65
2023/09/20 04:34:27;;;;;;;0.10;0.10;;;;;;;18.33;80.38;97802.03;7361843;19;20010;-65
2023/09/20 04:36:52;;;;;;;0.10;0.10;;;;;;;18.51;80.43;97835.53;7366718;19;20043;-66
2023/09/20 04:39:20;;;;;;;0.10;0.10;;;;;;;18.52;80.47;97826.63;7360741;19;20007;-65
2023/09/20 04:41:45;;;;;;;0.10;0.10;;;;;;;18.57;80.58;97845.47;7362734;19;20014;-65
2023/09/20 04:44:11;;;;;;;0.10;0.10;;;;;;;18.40;80.19;97816.31;7362782;19;20015;-65
2023/09/20 04:46:36;;;;;;;0.10;0.10;;;;;;;18.54;80.62;97830.75;7363195;19;20039;-65
2023/09/20 04:49:05;;;;;;;0.08;0.08;;;;;;;18.57;80.48;97824.34;7366184;19;20477;-65
2023/09/20 04:51:31;;;;;;;0.10;0.10;;;;;;;18.58;80.53;97840.03;7364766;19;20020;-65
2023/09/20 04:53:57;;;;;;;0.10;0.10;;;;;;;18.58;80.27;97820.72;7369708;19;20374;-65
2023/09/20 04:56:23;;;;;;;0.10;0.10;;;;;;;18.50;80.06;97796.88;7364274;19;20011;-65
2023/09/20 04:58:49;;;;;;;0.10;0.10;;;;;;;18.60;79.85;97805.50;7364410;19;20012;-65
2023/09/20 05:01:15;;;;;;;0.10;0.10;;;;;;;18.61;79.96;97809.84;7364195;19;20015;-65
2023/09/20 05:03:41;;;;;;;0.10;0.10;;;;;;;18.62;79.29;97800.91;7364082;19;20046;-65
2023/09/20 05:06:06;;;;;;;0.13;0.13;;;;;;;18.61;79.31;97796.63;7367560;19;20337;-65
2023/09/20 05:08:32;;;;;;;0.10;0.10;;;;;;;18.48;79.35;97804.13;7372639;19;21782;-65
2023/09/20 05:10:58;;;;;;;0.10;0.10;;;;;;;18.57;79.51;97826.97;7360037;19;20023;-65
2023/09/20 05:13:23;;;;;;;0.10;0.10;;;;;;;18.53;79.44;97830.91;7360366;19;20522;-65
2023/09/20 05:15:50;;;;;;;0.10;0.10;;;;;;;18.61;79.65;97820.41;7364122;19;20034;-66
2023/09/20 05:18:16;;;;;;;0.10;0.10;;;;;;;18.62;79.52;97816.78;7368211;19;20037;-65
2023/09/20 05:20:44;;;;;;;0.10;0.10;;;;;;;18.60;79.34;97853.09;7360897;19;20540;-65
2023/09/20 05:23:10;;;;;;;0.10;0.10;;;;;;;18.60;79.27;97829.28;7362927;19;20025;-65
2023/09/20 05:25:36;;;;;;;0.10;0.10;;;;;;;18.57;79.21;97866.63;7361720;19;20011;-65
2023/09/20 05:28:02;;;;;;;0.10;0.10;;;;;;;18.57;79.00;97841.03;7359382;19;20124;-64
2023/09/20 05:30:27;;;;;;;0.10;0.10;;;;;;;18.51;79.20;97848.75;7366114;19;20010;-65
2023/09/20 05:32:53;;;;;;;0.10;0.10;;;;;;;18.47;78.23;97844.75;7365307;19;20010;-65
2023/09/20 05:35:19;;;;;;;0.10;0.10;;;;;;;18.34;78.12;97838.03;7361015;19;20021;-65
2023/09/20 05:37:44;;;;;;;0.10;0.10;;;;;;;18.29;78.31;97864.09;7367623;19;20007;-64
2023/09/20 05:40:17;;;;;;;0.10;0.10;;;;;;;18.03;77.49;97826.25;7365777;19;20014;-65
2023/09/20 05:42:44;;;;;;;0.10;0.10;;;;;;;18.13;77.34;97863.97;7371055;19;20010;-65
2023/09/20 05:45:10;;;;;;;0.10;0.10;;;;;;;18.04;77.68;97872.78;7366463;19;20035;-65
2023/09/20 05:47:36;;;;;;;0.10;0.10;;;;;;;17.81;77.40;97865.31;7368952;19;20014;-65
2023/09/20 05:50:02;;;;;;;0.10;0.10;;;;;;;17.78;76.40;97876.16;7368861;19;20014;-66
2023/09/20 05:52:28;;;;;;;0.10;0.10;;;;;;;17.67;75.64;97878.16;7367517;19;20529;-65
2023/09/20 05:54:53;;;;;;;0.10;0.10;;;;;;;17.57;75.81;97883.50;7366449;19;20010;-65
2023/09/20 05:57:19;;;;;;;0.10;0.10;;;;;;;17.53;75.74;97897.97;7369317;19;20007;-64
2023/09/20 05:59:45;;;;;;;0.10;0.10;;;;;;;17.44;76.37;97919.97;7363569;19;20011;-65
2023/09/20 06:02:10;;;;;;;0.10;0.10;;;;;;;17.32;76.21;97927.22;7366911;19;20360;-66
2023/09/20 06:04:38;;;;;;;0.10;0.10;;;;;;;17.23;75.99;97933.34;7369121;19;20022;-65
2023/09/20 06:07:04;;;;;;;0.10;0.10;;;;;;;17.08;75.92;97919.81;7368461;19;20652;-65
2023/09/20 06:09:30;;;;;;;0.10;0.10;;;;;;;17.02;75.93;97921.22;7366724;19;20010;-65
2023/09/20 06:11:55;;;;;;;0.10;0.10;;;;;;;16.95;76.33;97943.84;7367907;19;20014;-65
2023/09/20 06:14:22;;;;;;;0.10;0.10;;;;;;;16.67;76.98;97898.09;7376157;19;20006;-64
2023/09/20 06:16:48;;;;;;;0.00;0.00;;;;;;;16.80;76.51;97938.19;7370971;19;20026;-65
2023/09/20 06:19:16;;;;;;;0.10;0.10;;;;;;;16.66;76.75;97906.16;7364942;19;20030;-65
2023/09/20 06:21:46;;;;;;;0.13;0.13;;;;;;;16.64;76.79;97930.03;7362216;19;20006;-65
2023/09/20 06:24:11;;;;;;;0.10;0.10;;;;;;;16.60;77.49;97936.53;7364399;19;20011;-65
2023/09/20 06:26:40;;;;;;;0.10;0.10;;;;;;;16.53;77.19;97932.81;7366473;19;20027;-65
2023/09/20 06:29:06;;;;;;;0.10;0.10;;;;;;;16.49;77.47;97944.59;7359655;19;20016;-65
2023/09/20 06:31:32;;;;;;;0.10;0.10;;;;;;;16.45;76.91;97922.13;7365347;19;20340;-65
2023/09/20 06:33:58;;;;;;;0.10;0.10;;;;;;;16.42;77.47;97943.47;7369055;19;21123;-65
2023/09/20 06:36:23;;;;;;;0.10;0.10;;;;;;;16.37;77.94;97930.72;7365410;19;20002;-65
2023/09/20 06:38:49;;;;;;;0.10;0.10;;;;;;;16.31;77.86;97937.38;7366180;19;20078;-64
2023/09/20 06:41:15;;;;;;;0.10;0.10;;;;;;;16.19;77.71;97922.69;7368551;19;20042;-65
2023/09/20 06:43:41;;;;;;;0.10;0.10;;;;;;;16.26;78.21;97942.22;7362983;19;20010;-65
2023/09/20 06:46:07;;;;;;;0.10;0.10;;;;;;;16.24;78.46;97946.81;7368924;19;20403;-65
2023/09/20 06:48:33;;;;;;;0.03;0.03;;;;;;;16.22;78.96;97943.50;7368670;19;20014;-65
2023/09/20 06:51:00;;;;;;;0.10;0.10;;;;;;;16.21;78.50;97981.28;7360715;19;20640;-65
2023/09/20 06:53:25;;;;;;;0.10;0.10;;;;;;;16.16;78.10;97959.81;7366706;19;20756;-65
2023/09/20 06:55:51;;;;;;;0.10;0.10;;;;;;;16.18;78.32;97973.69;7365349;19;20031;-65
2023/09/20 06:58:16;;;;;;;0.10;0.10;;;;;;;16.18;78.30;97968.41;7362656;19;20006;-65
2023/09/20 07:00:42;;;;;;;0.10;0.10;;;;;;;16.11;78.26;97966.47;7362563;19;20120;-66
2023/09/20 07:03:11;;;;;;;0.10;0.10;;;;;;;16.11;78.87;97961.19;7365183;19;20029;-65
2023/09/20 07:05:37;;;;;;;0.10;0.10;;;;;;;16.18;78.99;97963.16;7366190;19;20030;-65
2023/09/20 07:08:04;;;;;;;0.10;0.10;;;;;;;16.20;78.88;97977.00;7367576;19;20070;-64
2023/09/20 07:10:31;;;;;;;0.20;0.20;;;;;;;16.21;78.55;97972.56;7364812;19;20941;-64
2023/09/20 07:12:57;;;;;;;0.05;0.05;;;;;;;16.21;78.49;97970.75;7367375;19;20026;-65
2023/09/20 07:15:28;;;;;;;0.10;0.10;;;;;;;16.21;78.21;97967.31;7368459;19;19998;-65
2023/09/20 07:18:00;;;;;;;0.10;0.10;;;;;;;16.24;78.07;97988.94;7372900;19;20034;-65
2023/09/20 07:20:29;;;;;;;0.10;0.10;;;;;;;16.21;78.04;97983.94;7364426;19;20497;-65
2023/09/20 07:22:55;;;;;;;0.10;0.10;;;;;;;16.16;78.07;97986.13;7365816;19;20018;-64
2023/09/20 07:25:23;;;;;;;0.10;0.10;;;;;;;16.18;78.39;97994.75;7371458;19;20010;-64
2023/09/20 07:27:50;;;;;;;0.10;0.10;;;;;;;16.25;77.99;98003.75;7367880;19;20018;-65
2023/09/20 07:30:21;;;;;;;0.10;0.10;;;;;;;16.13;77.95;97981.16;7359622;19;20867;-64
2023/09/20 07:32:48;;;;;;;0.10;0.10;;;;;;;16.24;77.99;97988.94;7363671;19;20033;-65
2023/09/20 07:35:26;;;;;;;0.10;0.10;;;;;;;16.17;77.79;97993.09;7362907;19;21956;-65
2023/09/20 07:37:56;;;;;;;0.10;0.10;;;;;;;16.13;78.66;97986.44;7366323;19;20014;-65
2023/09/20 07:40:35;;;;;;;0.10;0.10;;;;;;;16.30;78.22;98009.44;7364400;19;20035;-64
2023/09/20 07:43:04;;;;;;;0.10;0.10;;;;;;;16.28;78.08;98006.13;7365038;19;20022;-65
2023/09/20 07:45:38;;;;;;;0.10;0.10;;;;;;;16.29;77.92;97997.25;7366652;19;20086;-65
2023/09/20 07:48:21;;;;;;;0.10;0.10;;;;;;;16.29;78.09;98001.69;7362760;19;20010;-64
2023/09/20 07:50:49;;;;;;;0.10;0.10;;;;;;;16.21;77.39;98005.00;7362744;19;20021;-65
2023/09/20 07:53:15;;;;;;;0.10;0.10;;;;;;;16.29;77.70;98010.41;7362989;19;20090;-64
2023/09/20 07:55:45;;;;;;;0.10;0.10;;;;;;;16.28;77.19;97998.22;7363730;19;20049;-64
2023/09/20 07:58:13;;;;;;;0.10;0.10;;;;;;;16.25;76.97;98001.13;7346471;19;20462;-64
2023/09/20 08:00:39;;;;;;;;;;;;;;;16.31;77.43;98005.00;7362158;19;20018;-65
2023/09/20 08:03:06;;;;;;;0.10;0.10;;;;;;;16.29;76.46;98017.50;7367048;19;20347;-64
2023/09/20 08:05:33;;;;;;;0.10;0.10;;;;;;;16.28;76.34;98027.19;7361292;19;20021;-64
2023/09/20 08:07:58;;;;;;;0.10;0.10;;;;;;;16.28;76.54;98027.19;7363922;19;20018;-65
2023/09/20 08:10:24;;;;;;;0.10;0.10;;;;;;;16.28;77.02;98032.47;7361895;19;20038;-66
2023/09/20 08:12:49;;;;;;;0.10;0.10;;;;;;;16.30;76.18;98040.22;7359162;19;20043;-65
2023/09/20 08:15:14;;;;;;;0.10;0.10;;;;;;;16.33;76.08;98024.16;7351356;19;20031;-65
2023/09/20 08:20:24;;;;;;;0.10;0.10;;;;;;;16.44;76.28;98007.41;7363044;19;20359;-64
2023/09/20 09:01:38;;;;;;;0.10;0.10;;;;;;;17.58;74.34;98062.78;7360627;19;20023;-65
2023/09/20 09:04:08;;;;;;;0.10;0.10;;;;;;;17.63;72.20;98062.34;7362885;19;20747;-64
2023/09/20 09:06:34;;;;;;;0.10;0.10;;;;;;;17.67;72.35;98084.84;7365088;19;20015;-65
2023/09/20 09:08:59;;;;;;;0.10;0.10;;;;;;;17.66;71.69;98072.63;7364213;19;20014;-65
2023/09/20 09:11:25;;;;;;;0.10;0.10;;;;;;;17.76;71.50;98085.84;7369219;19;20015;-65
2023/09/20 09:13:52;;;;;;;0.10;0.10;;;;;;;17.85;70.75;98071.78;7367878;19;20006;-65
2023/09/20 09:16:21;;;;;;;0.00;0.00;;;;;;;17.91;71.32;98070.34;7373073;19;20011;-65
2023/09/20 09:18:48;;;;;;;0.10;0.10;;;;;;;18.03;70.12;98082.38;7368800;19;19994;-65
2023/09/20 09:21:14;;;;;;;0.10;0.10;;;;;;;18.09;69.39;98092.34;7367996;19;20953;-64
2023/09/20 09:23:45;;;;;;;0.10;0.10;;;;;;;18.15;68.97;98073.31;7368095;19;20082;-65
2023/09/20 09:26:11;;;;;;;0.10;0.10;;;;;;;18.26;67.70;98078.38;7369725;19;20018;-64
2023/09/20 09:28:39;;;;;;;0.00;0.00;;;;;;;18.39;69.12;98092.06;7366713;19;19987;-64
2023/09/20 09:31:06;;;;;;;0.20;0.20;;;;;;;18.46;67.56;98080.91;7370687;19;20010;-65
2023/09/20 09:33:31;;;;;;;0.20;0.20;;;;;;;18.60;67.29;98064.53;7368280;19;20021;-65
2023/09/20 09:35:57;;;;;;;0.10;0.10;;;;;;;18.76;67.13;98088.53;7368884;19;20006;-65
2023/09/20 09:38:23;;;;;;;0.10;0.10;;;;;;;18.69;66.05;98076.88;7370134;19;20007;-64
2023/09/20 09:40:58;;;;;;;0.10;0.10;;;;;;;19.02;68.29;98088.59;7366995;19;20016;-66
2023/09/20 09:43:23;;;;;;;0.10;0.10;;;;;;;19.12;65.21;98099.09;7369318;19;20014;-64
2023/09/20 09:45:50;;;;;;;0.10;0.10;;;;;;;19.21;65.42;98087.63;7371825;19;19999;-65
2023/09/20 09:48:16;;;;;;;0.10;0.10;;;;;;;19.37;64.48;98094.84;7368052;19;20021;-65
2023/09/20 09:50:45;;;;;;;0.10;0.10;;;;;;;19.55;64.02;98097.44;7368279;19;20011;-65
2023/09/20 09:53:12;;;;;;;0.10;0.10;;;;;;;19.69;63.63;98118.09;7367040;19;20006;-65
2023/09/20 09:55:38;;;;;;;0.10;0.10;;;;;;;19.80;63.59;98061.38;7370178;19;20078;-65
2023/09/20 09:58:04;;;;;;;0.10;0.10;;;;;;;19.91;62.12;98093.72;7368848;19;20010;-65
2023/09/20 10:00:32;;;;;;;0.10;0.10;;;;;;;20.00;63.73;98104.34;7368245;19;19994;-65
2023/09/20 10:03:06;;;;;;;0.10;0.10;;;;;;;20.20;64.46;98134.94;7365263;19;20082;-65
2023/09/20 10:05:33;;;;;;;0.10;0.10;;;;;;;20.35;62.97;98117.44;7363973;19;20471;-65
2023/09/20 10:08:01;;;;;;;0.00;0.00;;;;;;;20.55;63.43;98109.25;7370400;19;20596;-65
2023/09/20 10:10:27;;;;;;;0.10;0.10;;;;;;;20.69;60.03;98137.81;7365556;19;20769;-65
2023/09/20 10:12:53;;;;;;;0.10;0.10;;;;;;;20.83;60.98;98107.16;7367074;19;20014;-65
2023/09/20 10:15:19;;;;;;;0.10;0.10;;;;;;;21.00;61.42;98130.06;7370026;19;20019;-64
2023/09/20 10:17:55;;;;;;;0.10;0.10;;;;;;;21.20;60.48;98135.91;7368901;19;20006;-64
2023/09/20 10:20:22;;;;;;;0.10;0.10;;;;;;;21.24;58.81;98151.34;7369441;19;20022;-65
2023/09/20 10:22:49;;;;;;;0.10;0.10;;;;;;;21.29;58.74;98140.22;7372789;19;20172;-65
2023/09/20 10:25:32;;;;;;;0.10;0.10;;;;;;;21.15;59.46;98090.44;7367837;19;20039;-65
2023/09/20 10:28:02;;;;;;;0.10;0.10;;;;;;;21.48;57.06;98166.44;7367131;19;20822;-65
2023/09/20 10:30:28;;;;;;;0.10;0.10;;;;;;;21.52;56.43;98182.06;7366773;19;20432;-64
2023/09/20 10:32:55;;;;;;;0.10;0.10;;;;;;;21.61;57.03;98159.81;7376490;19;20094;-64
2023/09/20 10:35:30;;;;;;;0.10;0.10;;;;;;;21.62;56.61;98162.31;7363646;19;20010;-65
2023/09/20 10:38:25;;;;;;;0.10;0.10;;;;;;;21.72;58.00;98175.41;7367313;19;20027;-64
2023/09/20 10:40:59;;;;;;;0.10;0.10;;;;;;;21.73;55.95;98177.06;7362041;19;20030;-64
2023/09/20 10:43:37;;;;;;;0.10;0.10;;;;;;;21.87;56.55;98171.09;7368311;19;20010;-64
2023/09/20 10:46:07;;;;;;;0.10;0.10;;;;;;;21.79;54.96;98189.69;7365770;19;20017;-64
2023/09/20 10:48:33;;;;;;;0.10;0.10;;;;;;;21.70;53.87;98191.53;7369041;19;20010;-65
2023/09/20 10:50:59;;;;;;;0.10;0.10;;;;;;;21.64;54.05;98194.00;7365248;19;20542;-65
2023/09/20 10:53:44;;;;;;;0.10;0.10;;;;;;;21.58;55.23;98187.53;7368507;19;20371;-65
2023/09/20 10:56:10;;;;;;;0.10;0.10;;;;;;;21.42;53.95;98188.38;7369192;19;20007;-64
2023/09/20 10:58:41;;;;;;;0.10;0.10;;;;;;;21.27;54.15;98184.66;7374396;19;20011;-65
2023/09/20 11:01:08;;;;;;;0.10;0.10;;;;;;;21.14;56.01;98195.78;7369520;19;20031;-64
2023/09/20 11:03:34;;;;;;;0.10;0.10;;;;;;;20.97;56.64;98181.63;7356273;19;21440;-64
2023/09/20 11:06:00;;;;;;;0.10;0.10;;;;;;;21.02;56.40;98197.06;7354819;19;20007;-64
2023/09/20 11:08:26;;;;;;;0.10;0.10;;;;;;;21.02;56.92;98185.63;7361972;19;20635;-64
2023/09/20 11:10:54;;;;;;;0.10;0.10;;;;;;;21.07;57.50;98199.22;7366456;19;20002;-65
2023/09/20 11:13:22;;;;;;;0.10;0.10;;;;;;;21.15;56.96;98212.53;7366142;19;20010;-64
2023/09/20 11:15:48;;;;;;;0.10;0.10;;;;;;;21.29;57.77;98211.91;7364782;19;20014;-64
2023/09/20 11:18:19;;;;;;;0.10;0.10;;;;;;;21.52;57.63;98200.66;7364904;19;20018;-64
2023/09/20 11:20:48;;;;;;;0.10;0.10;;;;;;;21.71;57.19;98224.25;7364224;19;20481;-64
2023/09/20 11:23:13;;;;;;;0.10;0.10;;;;;;;21.81;58.15;98203.66;7366278;19;20039;-64
2023/09/20 11:25:41;;;;;;;0.08;0.08;;;;;;;22.13;57.57;98223.22;7360238;19;20443;-65
2023/09/20 11:28:08;;;;;;;0.00;0.00;;;;;;;22.40;57.00;98222.81;7363002;19;20472;-64
2023/09/20 11:30:34;;;;;;;0.10;0.10;;;;;;;22.65;57.08;98214.75;7364069;19;20015;-65
2023/09/20 11:33:01;;;;;;;0.10;0.10;;;;;;;22.86;55.40;98225.69;7366492;19;20019;-65
2023/09/20 11:35:39;;;;;;;0.10;0.10;;;;;;;23.20;57.52;98227.19;7358751;19;20035;-64
2023/09/20 11:38:07;;;;;;;0.10;0.10;;;;;;;23.37;55.42;98212.78;7361094;19;20662;-64
2023/09/20 11:40:36;;;;;;;0.10;0.10;;;;;;;23.59;55.40;98237.75;7363385;19;20018;-64
2023/09/20 11:43:09;;;;;;;0.10;0.10;;;;;;;23.76;55.31;98233.13;7359442;19;20010;-65
2023/09/20 11:45:35;;;;;;;0.17;0.17;;;;;;;23.83;51.17;98220.78;7363443;19;20007;-64
2023/09/20 11:48:10;;;;;;;0.10;0.10;;;;;;;24.05;52.68;98251.88;7369180;19;20034;-65
2023/09/20 11:50:42;;;;;;;0.10;0.10;;;;;;;24.04;51.02;98234.22;7372552;19;20027;-64
2023/09/20 11:53:13;;;;;;;0.10;0.10;;;;;;;23.96;50.47;98242.28;7371027;19;20014;-64
2023/09/20 11:55:41;;;;;;;0.10;0.10;;;;;;;23.87;49.99;98246.03;7366069;19;20002;-64
2023/09/20 11:58:07;;;;;;;0.10;0.10;;;;;;;23.79;50.51;98252.28;7364061;19;20018;-64
2023/09/20 12:00:33;;;;;;;0.20;0.20;;;;;;;23.81;50.93;98262.75;7360060;19;20014;-64
2023/09/20 12:03:02;;;;;;;0.10;0.10;;;;;;;23.86;48.45;98278.19;7363263;19;20455;-64
2023/09/20 12:05:28;;;;;;;0.10;0.10;;;;;;;23.88;48.63;98261.03;7364422;19;20014;-64
2023/09/20 12:07:59;;;;;;;0.20;0.20;;;;;;;23.99;48.49;98287.25;7365537;19;20017;-64
2023/09/20 12:10:26;;;;;;;0.10;0.10;;;;;;;23.90;47.23;98267.00;7365569;19;20099;-64
2023/09/20 12:12:52;;;;;;;0.10;0.10;;;;;;;23.92;48.63;98264.97;7366209;19;20030;-64
2023/09/20 12:15:20;;;;;;;0.10;0.10;;;;;;;23.93;47.92;98271.16;7364714;19;20018;-63
2023/09/20 12:17:45;;;;;;;0.10;0.10;;;;;;;23.98;48.17;98266.94;7363241;19;20021;-64